Date,TemperatureHighF,TemperatureAvgF,TemperatureLowF,DewpointHighF,DewpointAvgF,DewpointLowF,HumidityHigh,HumidityAvg,HumidityLow,PressureMaxIn,PressureMinIn,WindSpeedMaxMPH,WindSpeedAvgMPH,GustSpeedMaxMPH,PrecipitationSumIn
2013-10-1,74.5,57.9,46.1,55.9,50.0,43.9,93,78,45,29.95,29.80,7,1,9,0.01
2013-10-2,78.3,62.5,50.8,60.8,54.7,48.6,93,77,47,29.88,29.73,16,0,16,0.00
2013-10-3,72.0,59.7,49.3,56.5,50.6,45.8,90,74,42,30.03,29.88,5,0,6,0.00
2013-10-4,70.4,56.6,46.9,56.4,49.3,44.4,92,78,49,30.07,30.00,3,0,4,0.00
2013-10-5,62.4,56.5,48.9,51.0,46.3,42.7,91,69,50,30.12,30.05,4,0,5,0.00
2013-10-6,55.5,51.3,48.5,48.8,43.4,37.5,91,75,58,30.26,30.11,9,1,10,0.07
2013-10-7,64.6,58.6,51.3,62.5,56.6,48.6,94,93,90,30.18,29.77,10,1,13,0.36
2013-10-8,61.2,53.7,41.0,57.9,43.8,37.2,96,72,44,30.37,29.81,12,1,15,0.00
2013-10-9,59.0,44.2,38.7,43.6,38.5,35.7,91,81,50,30.47,30.35,4,0,7,0.00
2013-10-10,59.2,48.1,38.2,50.2,43.7,36.0,93,85,62,30.35,30.17,4,0,5,0.00
2013-10-11,67.7,54.5,45.7,55.6,48.9,43.5,93,83,52,30.17,30.10,4,0,6,0.01
2013-10-12,60.2,54.0,50.7,51.6,48.8,45.9,92,83,69,30.40,30.15,5,0,7,0.00
2013-10-13,58.1,50.9,42.2,48.8,46.6,39.8,91,85,63,30.45,30.38,3,0,5,0.00
2013-10-14,59.1,50.0,39.2,49.7,44.4,36.9,93,82,62,30.38,30.23,4,0,7,0.01
2013-10-15,65.0,57.0,52.0,54.0,51.1,48.7,92,81,65,30.26,30.18,4,0,6,0.00
2013-10-16,60.7,56.5,53.1,53.9,52.0,49.9,92,85,72,30.18,29.88,5,0,7,0.00
2013-10-17,65.5,57.3,52.1,57.7,53.2,49.8,93,87,75,29.88,29.68,4,0,6,0.03
2013-10-18,68.6,57.8,50.8,57.0,50.4,42.6,94,78,48,29.81,29.55,13,1,15,0.32
2013-10-19,62.3,53.1,44.2,50.7,44.5,37.2,86,73,55,29.91,29.73,5,0,7,0.00
2013-10-20,61.4,54.1,43.2,50.8,41.4,32.4,92,65,36,29.94,29.63,13,1,15,0.01
2013-10-21,61.2,49.6,38.7,48.3,40.9,34.3,90,73,45,30.06,29.93,6,0,8,0.00
2013-10-22,60.2,53.0,42.5,53.7,48.5,40.0,91,85,74,29.95,29.67,4,0,11,0.05
2013-10-23,52.6,42.8,36.1,43.0,37.9,34.0,93,84,57,29.75,29.62,4,0,5,0.00